createdAt,value
2019-01-14T19:01:40.390Z,97752.76
2019-01-14T19:04:08.696Z,97758.55
2019-01-14T19:06:37.015Z,97760.75
2019-01-14T19:09:08.195Z,97758.55
2019-01-14T19:11:36.937Z,97768.22
2019-01-14T19:14:05.294Z,97779.44
2019-01-14T19:16:33.606Z,97786.64
2019-01-14T19:19:01.933Z,97780.24
2019-01-14T19:21:30.243Z,97798.66
2019-01-14T19:23:58.568Z,97804.66
2019-01-14T19:26:26.902Z,97807.84
2019-01-14T19:28:55.226Z,97808.59
2019-01-14T19:31:23.848Z,97816.06
2019-01-14T19:33:52.545Z,97817.94
2019-01-14T19:36:20.870Z,97816.15
2019-01-14T19:38:49.182Z,97813.60
2019-01-14T19:41:17.536Z,97827.72
2019-01-14T19:43:45.835Z,97827.24
2019-01-14T19:46:14.261Z,97838.02
2019-01-14T19:48:42.946Z,97846.39
2019-01-14T19:51:11.258Z,97847.59
2019-01-14T19:53:39.761Z,97840.73
2019-01-14T19:56:08.074Z,97844.48
2019-01-14T19:58:36.389Z,97849.14
2019-01-14T20:01:04.762Z,97856.79
2019-01-14T20:03:33.084Z,97861.14
2019-01-14T20:06:01.386Z,97870.31
2019-01-14T20:08:29.918Z,97876.17
2019-01-14T20:10:58.223Z,97884.99
2019-01-14T20:13:26.550Z,97888.95
2019-01-14T20:15:54.863Z,97896.89
2019-01-14T20:18:23.191Z,97893.64
2019-01-14T20:20:51.897Z,97881.49
2019-01-14T20:23:20.274Z,97891.26
2019-01-14T20:25:48.997Z,97878.69
2019-01-14T20:28:17.674Z,97885.82
2019-01-14T20:30:46.056Z,97887.67
2019-01-14T20:33:14.469Z,97899.80
2019-01-14T20:35:43.119Z,97912.86
2019-01-14T20:38:11.417Z,97905.33
2019-01-14T20:40:40.083Z,97899.53
2019-01-14T20:43:08.397Z,97908.48
2019-01-14T20:45:37.009Z,97912.20
2019-01-14T20:48:05.522Z,97924.45
2019-01-14T20:50:33.918Z,97927.23
2019-01-14T20:53:02.228Z,97936.61
2019-01-14T20:55:30.982Z,97939.28
2019-01-14T20:57:59.771Z,97933.63
2019-01-14T21:00:28.144Z,97941.27
2019-01-14T21:02:56.543Z,97934.67
2019-01-14T21:05:25.555Z,97944.81
2019-01-14T21:07:54.045Z,97948.25
2019-01-14T21:10:22.424Z,97962.53
2019-01-14T21:12:50.908Z,97958.64
2019-01-14T21:15:19.281Z,97972.52
2019-01-14T21:17:47.655Z,97970.23
2019-01-14T21:20:21.710Z,97969.14
2019-01-14T21:22:50.164Z,97984.72
2019-01-14T21:25:18.854Z,97980.06
2019-01-14T21:27:47.297Z,97982.42
2019-01-14T21:30:18.804Z,97981.27
2019-01-14T21:32:47.187Z,97986.41
2019-01-14T21:35:15.655Z,97984.78
2019-01-14T21:37:44.299Z,97995.48
2019-01-14T21:40:14.584Z,97987.98
2019-01-14T21:42:45.365Z,97988.16
2019-01-14T21:45:14.707Z,97988.67
2019-01-14T21:47:43.102Z,98003.16
2019-01-14T21:50:16.660Z,98001.16
2019-01-14T21:52:45.115Z,98004.96
2019-01-14T21:55:16.063Z,98010.78
2019-01-14T21:57:44.438Z,98009.29
2019-01-14T22:00:15.986Z,98014.64
2019-01-14T22:02:45.414Z,98015.31
2019-01-14T22:05:13.861Z,98025.50
2019-01-14T22:07:42.235Z,98021.56
2019-01-14T22:10:16.358Z,98031.72
2019-01-14T22:12:44.726Z,98028.71
2019-01-14T22:15:14.212Z,98029.37
2019-01-14T22:17:42.590Z,98038.27
2019-01-14T22:20:14.165Z,98030.91
2019-01-14T22:22:42.547Z,98033.53
2019-01-14T22:25:11.011Z,98041.67
2019-01-14T22:27:39.514Z,98054.64
2019-01-14T22:30:10.993Z,98045.05
2019-01-14T22:32:39.751Z,98041.40
2019-01-14T22:35:08.202Z,98051.84
2019-01-14T22:37:36.526Z,98051.52
2019-01-14T22:40:08.310Z,98051.06
2019-01-14T22:42:36.721Z,98053.96
2019-01-14T22:45:07.161Z,98059.13
2019-01-14T22:47:35.878Z,98050.05
2019-01-14T22:50:07.591Z,98059.70
2019-01-14T22:52:36.326Z,98069.69
2019-01-14T22:55:07.207Z,98064.11
2019-01-14T22:57:35.556Z,98055.16
2019-01-14T23:00:20.922Z,98049.98
2019-01-14T23:02:49.625Z,98048.07
2019-01-14T23:05:17.955Z,98066.38
2019-01-14T23:07:46.266Z,98058.89
2019-01-14T23:10:14.592Z,98062.50
2019-01-14T23:12:42.989Z,98061.96
2019-01-14T23:15:11.388Z,98065.02
2019-01-14T23:17:39.696Z,98065.22
2019-01-14T23:20:08.352Z,98061.86
2019-01-14T23:22:36.747Z,98067.00
2019-01-14T23:25:05.758Z,98067.75
2019-01-14T23:27:34.149Z,98073.48
2019-01-14T23:30:02.457Z,98077.44
2019-01-14T23:32:30.779Z,98067.91
2019-01-14T23:34:59.395Z,98074.47
2019-01-14T23:37:27.721Z,98071.92
2019-01-14T23:39:56.027Z,98079.95
2019-01-14T23:42:24.426Z,98079.34
2019-01-14T23:44:52.803Z,98080.59
2019-01-14T23:47:21.220Z,98084.92
2019-01-14T23:49:49.596Z,98085.63
2019-01-14T23:52:17.907Z,98089.31
2019-01-14T23:54:46.227Z,98082.18
2019-01-14T23:57:14.534Z,98093.27
2019-01-14T23:59:42.864Z,98095.19
